Time;durP1;ratioP1;P1;durP2;ratioP2;P2;SDS_P1;SDS_P2;PMS_P1;PMS_P2;Temp;Humidity;BMP_temperature;BMP_pressure;BME280_temperature;BME280_humidity;BME280_pressure;Samples;Min_cycle;Max_cycle;Signal;HPM_P1;HPM_P2
2024/01/04 00:00:23;;;;;;;2.88;2.67;;;;;;;;;;1035300;28;20028;-71
2024/01/04 00:00:53;;;;;;;4.45;4.05;;;;;;;;;;1036339;28;20021;-71
2024/01/04 00:01:24;;;;;;;4.90;4.50;;;;;;;;;;1036115;28;20390;-71
2024/01/04 00:01:54;;;;;;;17.95;4.35;;;;;;;;;;1036427;28;20470;-71
2024/01/04 00:02:25;;;;;;;3.47;2.80;;;;;;;;;;1040109;28;20056;-71
2024/01/04 00:02:56;;;;;;;3.80;3.45;;;;;;;;;;1040185;28;20031;-71
2024/01/04 00:03:26;;;;;;;2.83;2.63;;;;;;;;;;1040002;28;20021;-71
2024/01/04 00:03:57;;;;;;;8.85;5.50;;;;;;;;;;1040105;28;20036;-71
2024/01/04 00:04:27;;;;;;;6.82;5.57;;;;;;;;;;1036389;28;20049;-71
2024/01/04 00:04:58;;;;;;;9.10;2.65;;;;;;;;;;1036344;28;20474;-71
2024/01/04 00:05:29;;;;;;;4.45;2.95;;;;;;;;;;1035969;28;20160;-71
2024/01/04 00:06:01;;;;;;;3.55;3.25;;;;;;;;;;1039418;28;20540;-71
2024/01/04 00:06:31;;;;;;;9.55;3.88;;;;;;;;;;1039053;28;20068;-71
2024/01/04 00:07:02;;;;;;;6.22;5.60;;;;;;;;;;1040101;28;20026;-71
2024/01/04 00:07:32;;;;;;;2.75;1.85;;;;;;;;;;1039697;28;20025;-71
2024/01/04 00:08:03;;;;;;;10.05;4.82;;;;;;;;;;1036109;28;20069;-71
2024/01/04 00:08:34;;;;;;;4.60;4.20;;;;;;;;;;1036076;28;20094;-71
2024/01/04 00:09:04;;;;;;;10.52;4.07;;;;;;;;;;1036113;28;20389;-71
2024/01/04 00:09:34;;;;;;;4.30;3.92;;;;;;;;;;1039966;28;20474;-71
2024/01/04 00:10:05;;;;;;;6.47;3.75;;;;;;;;;;1040259;28;20036;-71
2024/01/04 00:10:36;;;;;;;8.85;3.08;;;;;;;;;;1040001;28;20102;-71
2024/01/04 00:11:06;;;;;;;6.50;3.55;;;;;;;;;;1039721;28;20669;-71
2024/01/04 00:11:37;;;;;;;6.72;5.80;;;;;;;;;;1035924;28;20517;-71
2024/01/04 00:12:07;;;;;;;4.40;4.00;;;;;;;;;;1036221;28;20029;-71
2024/01/04 00:12:38;;;;;;;4.20;3.42;;;;;;;;;;1036107;28;20022;-71
2024/01/04 00:13:08;;;;;;;2.47;2.38;;;;;;;;;;1036336;28;20026;-71
2024/01/04 00:13:39;;;;;;;2.22;2.13;;;;;;;;;;1036253;28;20049;-71
2024/01/04 00:14:09;;;;;;;3.55;1.52;;;;;;;;;;1036377;28;20030;-71
2024/01/04 00:14:39;;;;;;;2.15;2.05;;;;;;;;;;1036294;28;20026;-71
2024/01/04 00:15:10;;;;;;;1.65;1.55;;;;;;;;;;1036084;28;20038;-71
2024/01/04 00:15:40;;;;;;;2.92;2.72;;;;;;;;;;1035988;28;20072;-71
2024/01/04 00:16:11;;;;;;;13.40;3.20;;;;;;;;;;1035746;28;20029;-71
2024/01/04 00:16:41;;;;;;;1.92;1.83;;;;;;;;;;1036317;28;20414;-71
2024/01/04 00:17:12;;;;;;;2.10;2.00;;;;;;;;;;1036268;28;20442;-71
2024/01/04 00:17:42;;;;;;;21.02;5.97;;;;;;;;;;1036279;28;20505;-71
2024/01/04 00:18:12;;;;;;;5.20;3.20;;;;;;;;;;1036374;28;20532;-71
2024/01/04 00:18:43;;;;;;;5.28;3.50;;;;;;;;;;1039886;28;20087;-71
2024/01/04 00:19:13;;;;;;;5.93;4.07;;;;;;;;;;1039832;28;20032;-71
2024/01/04 00:19:44;;;;;;;4.38;4.03;;;;;;;;;;1039920;28;20033;-71
2024/01/04 00:20:14;;;;;;;2.85;2.65;;;;;;;;;;1040057;28;20028;-71
2024/01/04 00:20:45;;;;;;;3.00;2.78;;;;;;;;;;1031603;28;20026;-71
2024/01/04 00:21:15;;;;;;;3.85;3.55;;;;;;;;;;1031775;28;20086;-71
2024/01/04 00:21:46;;;;;;;2.53;2.33;;;;;;;;;;1032068;28;20072;-71
2024/01/04 00:22:16;;;;;;;3.97;3.70;;;;;;;;;;1034954;28;20075;-71
2024/01/04 00:22:46;;;;;;;7.80;7.15;;;;;;;;;;1036369;28;20029;-71
2024/01/04 00:23:17;;;;;;;4.55;4.18;;;;;;;;;;1036307;28;20053;-71
2024/01/04 00:23:47;;;;;;;5.00;4.15;;;;;;;;;;1036299;28;20022;-71
2024/01/04 00:24:18;;;;;;;2.85;2.65;;;;;;;;;;1036366;28;20064;-71
2024/01/04 00:24:48;;;;;;;7.55;6.15;;;;;;;;;;1036332;28;20037;-71
2024/01/04 00:25:19;;;;;;;4.22;2.30;;;;;;;;;;1036054;28;20056;-71
2024/01/04 00:25:49;;;;;;;1.85;1.75;;;;;;;;;;1039300;28;20507;-71
2024/01/04 00:26:20;;;;;;;3.50;2.53;;;;;;;;;;1040006;28;20087;-71
2024/01/04 00:26:50;;;;;;;3.67;2.38;;;;;;;;;;1040220;28;20033;-71
2024/01/04 00:27:20;;;;;;;4.28;3.85;;;;;;;;;;1039921;28;20028;-71
2024/01/04 00:27:51;;;;;;;1.50;1.42;;;;;;;;;;1035959;28;20041;-71
2024/01/04 00:28:21;;;;;;;4.22;3.83;;;;;;;;;;1036092;28;20537;-71
2024/01/04 00:28:52;;;;;;;4.57;1.98;;;;;;;;;;1036044;28;20021;-71
2024/01/04 00:29:22;;;;;;;4.63;2.33;;;;;;;;;;1035887;28;20057;-71
2024/01/04 00:29:53;;;;;;;4.00;2.75;;;;;;;;;;1036352;28;20026;-71
2024/01/04 00:30:23;;;;;;;1.20;1.13;;;;;;;;;;1036218;28;20025;-71
2024/01/04 00:30:54;;;;;;;3.42;3.03;;;;;;;;;;1036144;28;20466;-71
2024/01/04 00:31:24;;;;;;;3.15;2.90;;;;;;;;;;1036025;28;20021;-71
2024/01/04 00:31:56;;;;;;;4.60;3.10;;;;;;;;;;1036375;28;20033;-71
2024/01/04 00:32:26;;;;;;;2.33;1.90;;;;;;;;;;1040112;28;20028;-71
2024/01/04 00:32:56;;;;;;;14.63;6.28;;;;;;;;;;1040179;28;20384;-71
2024/01/04 00:33:27;;;;;;;1.58;1.48;;;;;;;;;;1039942;28;20401;-71
2024/01/04 00:33:57;;;;;;;2.75;2.55;;;;;;;;;;1040033;28;20474;-71
2024/01/04 00:34:28;;;;;;;3.30;3.05;;;;;;;;;;1035943;28;20053;-71
2024/01/04 00:34:58;;;;;;;1.73;1.63;;;;;;;;;;1035351;28;20033;-71
2024/01/04 00:35:29;;;;;;;3.53;3.28;;;;;;;;;;1034725;28;21166;-71
2024/01/04 00:35:59;;;;;;;9.43;5.35;;;;;;;;;;1035707;28;20166;-71
2024/01/04 00:36:29;;;;;;;2.22;2.13;;;;;;;;;;1036276;28;20037;-71
2024/01/04 00:37:00;;;;;;;23.30;6.72;;;;;;;;;;1040054;28;20029;-71
2024/01/04 00:37:30;;;;;;;6.53;4.30;;;;;;;;;;1040005;28;20022;-71
2024/01/04 00:38:01;;;;;;;5.47;4.60;;;;;;;;;;1040054;28;20401;-71
2024/01/04 00:38:31;;;;;;;3.65;3.40;;;;;;;;;;1040044;28;20021;-71
2024/01/04 00:39:02;;;;;;;4.53;3.17;;;;;;;;;;1036293;28;20123;-71
2024/01/04 00:39:32;;;;;;;5.82;3.28;;;;;;;;;;1036243;28;20600;-71
2024/01/04 00:40:03;;;;;;;6.07;4.45;;;;;;;;;;1036272;28;20018;-71
2024/01/04 00:40:35;;;;;;;10.65;5.72;;;;;;;;;;1036043;28;20057;-71
2024/01/04 00:41:05;;;;;;;5.18;4.00;;;;;;;;;;1036053;28;20025;-71
2024/01/04 00:41:36;;;;;;;7.60;5.10;;;;;;;;;;1036089;28;20120;-71
2024/01/04 00:42:06;;;;;;;7.53;3.67;;;;;;;;;;1036279;28;20080;-71
2024/01/04 00:42:37;;;;;;;4.50;4.10;;;;;;;;;;1036279;28;20474;-71
2024/01/04 00:43:07;;;;;;;4.88;3.65;;;;;;;;;;1036230;28;20413;-71
2024/01/04 00:43:38;;;;;;;4.95;2.75;;;;;;;;;;1036144;28;20524;-71
2024/01/04 00:44:08;;;;;;;2.10;1.92;;;;;;;;;;1036324;28;20137;-71
2024/01/04 00:44:38;;;;;;;4.57;3.20;;;;;;;;;;1036251;28;20018;-71
2024/01/04 00:45:09;;;;;;;4.63;3.72;;;;;;;;;;1036145;28;20080;-71
2024/01/04 00:45:39;;;;;;;6.95;3.17;;;;;;;;;;1035532;28;20068;-71
2024/01/04 00:46:10;;;;;;;3.33;3.08;;;;;;;;;;1036022;28;20049;-71
2024/01/04 00:46:41;;;;;;;3.92;2.78;;;;;;;;;;1036203;28;20398;-71
2024/01/04 00:47:12;;;;;;;2.70;2.50;;;;;;;;;;1036192;28;20048;-71
2024/01/04 00:47:42;;;;;;;4.38;2.30;;;;;;;;;;1036118;28;20044;-71
2024/01/04 00:48:13;;;;;;;2.65;2.10;;;;;;;;;;1039936;28;20436;-71
2024/01/04 00:48:43;;;;;;;19.17;8.52;;;;;;;;;;1040015;28;20432;-71
2024/01/04 00:49:13;;;;;;;12.18;9.45;;;;;;;;;;1039961;28;20029;-71
2024/01/04 00:49:44;;;;;;;16.45;9.43;;;;;;;;;;1039879;28;20060;-71
2024/01/04 00:50:14;;;;;;;13.70;7.38;;;;;;;;;;1036189;28;20068;-71
2024/01/04 00:50:45;;;;;;;2.92;2.72;;;;;;;;;;1035966;28;20036;-71
2024/01/04 00:51:15;;;;;;;3.10;2.90;;;;;;;;;;1036055;28;20017;-71
2024/01/04 00:51:46;;;;;;;5.95;3.58;;;;;;;;;;1035823;28;20018;-71
2024/01/04 00:52:16;;;;;;;9.57;5.95;;;;;;;;;;1035940;28;20014;-71
2024/01/04 00:52:47;;;;;;;13.20;7.47;;;;;;;;;;1035949;28;20024;-71
2024/01/04 00:53:17;;;;;;;3.30;3.10;;;;;;;;;;1035845;28;20014;-71
2024/01/04 00:53:48;;;;;;;11.20;4.85;;;;;;;;;;1036204;28;20100;-71
2024/01/04 00:54:18;;;;;;;3.00;2.72;;;;;;;;;;1036269;28;20026;-71
2024/01/04 00:54:48;;;;;;;5.72;5.10;;;;;;;;;;1039950;28;20017;-71
2024/01/04 00:55:19;;;;;;;6.88;3.67;;;;;;;;;;1039700;28;20021;-71
2024/01/04 00:55:49;;;;;;;5.65;4.97;;;;;;;;;;1039796;28;20025;-71
2024/01/04 00:56:20;;;;;;;6.22;5.72;;;;;;;;;;1039761;28;20163;-71
2024/01/04 00:56:50;;;;;;;9.15;5.82;;;;;;;;;;1035972;28;20029;-71
2024/01/04 00:57:20;;;;;;;12.30;3.95;;;;;;;;;;1035762;28;20068;-71
2024/01/04 00:57:51;;;;;;;6.15;5.53;;;;;;;;;;1036004;28;20495;-71
2024/01/04 00:58:21;;;;;;;6.97;6.40;;;;;;;;;;1036248;28;20021;-71
2024/01/04 00:58:52;;;;;;;10.80;6.55;;;;;;;;;;1035545;28;20096;-71
2024/01/04 00:59:22;;;;;;;5.95;4.82;;;;;;;;;;1035777;28;20386;-71
2024/01/04 00:59:53;;;;;;;6.40;4.70;;;;;;;;;;1034846;28;20572;-71
2024/01/04 01:00:23;;;;;;;5.20;4.45;;;;;;;;;;1035660;28;20454;-71
2024/01/04 01:00:54;;;;;;;2.83;2.63;;;;;;;;;;1036110;28;20458;-71
2024/01/04 01:01:24;;;;;;;19.45;5.75;;;;;;;;;;1035791;28;20037;-71
2024/01/04 01:01:55;;;;;;;5.13;3.50;;;;;;;;;;1036003;28;20421;-71
2024/01/04 01:02:25;;;;;;;3.30;3.10;;;;;;;;;;1036161;28;20026;-71
2024/01/04 01:02:55;;;;;;;30.70;13.63;;;;;;;;;;1036163;28;20014;-71
2024/01/04 01:03:26;;;;;;;45.42;20.58;;;;;;;;;;1035982;28;20367;-71
2024/01/04 01:03:57;;;;;;;45.33;18.40;;;;;;;;;;1036028;28;20112;-71
2024/01/04 01:04:27;;;;;;;47.65;17.50;;;;;;;;;;1035900;28;20034;-71
2024/01/04 01:04:58;;;;;;;10.80;8.18;;;;;;;;;;1034795;28;20025;-71
2024/01/04 01:05:28;;;;;;;9.63;5.63;;;;;;;;;;1035812;28;20028;-71
2024/01/04 01:05:59;;;;;;;8.98;7.47;;;;;;;;;;1035326;28;20434;-71
2024/01/04 01:06:29;;;;;;;11.93;9.23;;;;;;;;;;1039691;28;20389;-71
2024/01/04 01:07:00;;;;;;;16.88;8.73;;;;;;;;;;1039771;28;20020;-71
2024/01/04 01:07:30;;;;;;;14.57;9.15;;;;;;;;;;1035635;28;20113;-71
2024/01/04 01:08:01;;;;;;;12.73;5.80;;;;;;;;;;1035508;28;20030;-71
2024/01/04 01:08:31;;;;;;;7.57;5.78;;;;;;;;;;1035893;28;20036;-71
2024/01/04 01:09:02;;;;;;;18.40;9.07;;;;;;;;;;1035747;28;20022;-71
2024/01/04 01:09:32;;;;;;;7.93;5.70;;;;;;;;;;1035982;28;20092;-71
2024/01/04 01:10:03;;;;;;;12.50;5.30;;;;;;;;;;1035928;28;20021;-71
2024/01/04 01:10:34;;;;;;;10.90;7.57;;;;;;;;;;1035706;28;20029;-71
2024/01/04 01:11:04;;;;;;;21.92;13.50;;;;;;;;;;1035697;28;20125;-71
2024/01/04 01:11:35;;;;;;;16.48;11.52;;;;;;;;;;1033527;28;20018;-71
2024/01/04 01:12:05;;;;;;;13.82;8.40;;;;;;;;;;1031357;28;20018;-71
2024/01/04 01:12:36;;;;;;;20.83;12.07;;;;;;;;;;1030908;28;20022;-71
2024/01/04 01:13:06;;;;;;;19.88;13.13;;;;;;;;;;1033254;28;20041;-71
2024/01/04 01:13:37;;;;;;;28.73;12.25;;;;;;;;;;1035086;28;20538;-72
2024/01/04 01:14:07;;;;;;;30.35;10.45;;;;;;;;;;1035003;28;20022;-72
2024/01/04 01:14:38;;;;;;;30.63;16.00;;;;;;;;;;1035231;28;20069;-72
2024/01/04 01:15:09;;;;;;;26.35;14.77;;;;;;;;;;1036101;28;20112;-72
2024/01/04 01:15:39;;;;;;;13.35;11.00;;;;;;;;;;1035405;28;20104;-72
2024/01/04 01:16:10;;;;;;;21.88;9.88;;;;;;;;;;1035581;28;20060;-72
2024/01/04 01:16:40;;;;;;;14.07;12.70;;;;;;;;;;1035884;28;20009;-72
2024/01/04 01:17:11;;;;;;;9.68;7.43;;;;;;;;;;1035739;28;20038;-71
2024/01/04 01:17:41;;;;;;;21.75;6.13;;;;;;;;;;1035578;28;20156;-71
2024/01/04 01:18:12;;;;;;;11.57;7.75;;;;;;;;;;1035787;28;20026;-71
2024/01/04 01:18:42;;;;;;;10.05;6.88;;;;;;;;;;1035372;28;20377;-71
2024/01/04 01:19:13;;;;;;;4.15;3.83;;;;;;;;;;1034898;28;20026;-71
2024/01/04 01:19:43;;;;;;;4.53;4.13;;;;;;;;;;1034333;28;20040;-71
2024/01/04 01:20:13;;;;;;;9.45;4.95;;;;;;;;;;1034569;28;20026;-71
2024/01/04 01:20:44;;;;;;;29.10;7.63;;;;;;;;;;1034440;28;20033;-71
2024/01/04 01:21:15;;;;;;;3.50;3.00;;;;;;;;;;1030331;28;20025;-72
2024/01/04 01:21:45;;;;;;;12.05;7.05;;;;;;;;;;1031761;28;20100;-72
2024/01/04 01:22:16;;;;;;;10.18;7.43;;;;;;;;;;1031037;28;20152;-72
2024/01/04 01:22:46;;;;;;;3.33;3.03;;;;;;;;;;1032998;28;20041;-71
2024/01/04 01:23:17;;;;;;;8.25;4.20;;;;;;;;;;1032091;28;20031;-71
2024/01/04 01:23:47;;;;;;;4.95;3.53;;;;;;;;;;1034910;28;20137;-71
2024/01/04 01:24:17;;;;;;;3.65;3.42;;;;;;;;;;1034587;28;20144;-71
2024/01/04 01:24:48;;;;;;;14.00;4.68;;;;;;;;;;1034673;28;20033;-71
2024/01/04 01:25:18;;;;;;;29.63;11.55;;;;;;;;;;1035036;28;20033;-72
2024/01/04 01:25:49;;;;;;;6.93;5.53;;;;;;;;;;1034772;28;20018;-73
2024/01/04 01:26:20;;;;;;;8.25;4.85;;;;;;;;;;1034962;28;20030;-72
2024/01/04 01:26:50;;;;;;;4.95;4.47;;;;;;;;;;1038966;28;20493;-72
2024/01/04 01:27:21;;;;;;;16.92;7.03;;;;;;;;;;1038948;28;20037;-72
2024/01/04 01:27:51;;;;;;;10.68;6.97;;;;;;;;;;1038255;28;20029;-72
2024/01/04 01:28:22;;;;;;;15.55;9.15;;;;;;;;;;1039533;28;20036;-72
2024/01/04 01:28:52;;;;;;;18.73;9.57;;;;;;;;;;1035514;28;20037;-72
2024/01/04 01:29:22;;;;;;;8.77;7.90;;;;;;;;;;1035300;28;20057;-72
2024/01/04 01:29:53;;;;;;;9.65;7.78;;;;;;;;;;1035553;28;20026;-72
2024/01/04 01:30:23;;;;;;;9.25;5.05;;;;;;;;;;1035724;28;20028;-72
2024/01/04 01:30:54;;;;;;;6.88;6.22;;;;;;;;;;1035471;28;20029;-72
2024/01/04 01:31:24;;;;;;;14.43;6.20;;;;;;;;;;1035422;28;20053;-72
2024/01/04 01:31:55;;;;;;;7.22;6.15;;;;;;;;;;1034338;28;20075;-71
2024/01/04 01:32:25;;;;;;;10.43;7.78;;;;;;;;;;1035137;28;20018;-71
2024/01/04 01:32:56;;;;;;;6.68;4.30;;;;;;;;;;1034228;28;20853;-71
2024/01/04 01:33:26;;;;;;;7.13;6.45;;;;;;;;;;1034311;28;20025;-72
2024/01/04 01:33:57;;;;;;;10.18;7.22;;;;;;;;;;1034510;28;20025;-72
2024/01/04 01:34:27;;;;;;;6.95;5.75;;;;;;;;;;1033143;28;20108;-72
2024/01/04 01:34:58;;;;;;;9.18;5.15;;;;;;;;;;1035185;28;20022;-72
2024/01/04 01:35:28;;;;;;;3.60;3.28;;;;;;;;;;1034714;28;20026;-72
2024/01/04 01:36:01;;;;;;;8.88;5.65;;;;;;;;;;1034683;28;20026;-72
2024/01/04 01:36:31;;;;;;;17.52;5.13;;;;;;;;;;1038844;28;20432;-72
2024/01/04 01:37:02;;;;;;;8.25;5.95;;;;;;;;;;1038985;28;20041;-72
2024/01/04 01:37:32;;;;;;;5.82;5.05;;;;;;;;;;1039282;28;20430;-72
2024/01/04 01:38:03;;;;;;;8.40;6.50;;;;;;;;;;1038876;28;20017;-72
2024/01/04 01:38:33;;;;;;;3.42;3.13;;;;;;;;;;1035168;28;20686;-73
2024/01/04 01:39:04;;;;;;;2.08;1.95;;;;;;;;;;1034250;28;20590;-73
2024/01/04 01:39:34;;;;;;;2.55;2.45;;;;;;;;;;1031075;28;20026;-72
2024/01/04 01:40:06;;;;;;;5.38;4.93;;;;;;;;;;1030661;28;20022;-72
2024/01/04 01:40:36;;;;;;;5.15;4.65;;;;;;;;;;1030606;28;20517;-72
2024/01/04 01:41:07;;;;;;;8.52;6.78;;;;;;;;;;1030871;28;21093;-72
2024/01/04 01:41:37;;;;;;;9.70;5.07;;;;;;;;;;1035125;28;20065;-72
2024/01/04 01:42:07;;;;;;;7.28;6.55;;;;;;;;;;1035652;28;20033;-72
2024/01/04 01:42:38;;;;;;;4.65;2.67;;;;;;;;;;1035513;28;20030;-72
2024/01/04 01:43:08;;;;;;;5.13;4.05;;;;;;;;;;1035585;28;20025;-72
2024/01/04 01:43:39;;;;;;;9.60;5.70;;;;;;;;;;1034770;28;20034;-72
2024/01/04 01:44:09;;;;;;;6.22;4.97;;;;;;;;;;1034918;28;20022;-72
2024/01/04 01:44:40;;;;;;;2.03;1.90;;;;;;;;;;1039047;28;20021;-72
2024/01/04 01:45:10;;;;;;;4.95;4.05;;;;;;;;;;1039510;28;20623;-72
2024/01/04 01:45:41;;;;;;;12.57;6.20;;;;;;;;;;1037122;28;20033;-72
2024/01/04 01:46:11;;;;;;;24.10;6.15;;;;;;;;;;1037002;28;20140;-72
2024/01/04 01:46:41;;;;;;;5.95;5.05;;;;;;;;;;1031153;28;20034;-72
2024/01/04 01:47:12;;;;;;;8.00;6.88;;;;;;;;;;1031243;28;20474;-72
2024/01/04 01:47:44;;;;;;;5.18;3.78;;;;;;;;;;1034199;28;20588;-72
2024/01/04 01:48:15;;;;;;;16.70;4.05;;;;;;;;;;1034860;28;20088;-72
2024/01/04 01:48:46;;;;;;;6.72;3.10;;;;;;;;;;1034672;28;20026;-72
2024/01/04 01:49:16;;;;;;;23.77;6.43;;;;;;;;;;1034781;28;20190;-72
2024/01/04 01:49:46;;;;;;;5.65;5.22;;;;;;;;;;1035559;28;20033;-72
2024/01/04 01:50:19;;;;;;;6.75;5.00;;;;;;;;;;1035380;28;20532;-72
2024/01/04 01:50:50;;;;;;;2.42;2.15;;;;;;;;;;1032827;28;20026;-72
2024/01/04 01:51:20;;;;;;;4.68;4.15;;;;;;;;;;1034196;28;20034;-72
2024/01/04 01:51:51;;;;;;;7.95;4.55;;;;;;;;;;1031557;28;20023;-72
2024/01/04 01:52:21;;;;;;;6.07;5.35;;;;;;;;;;1030713;28;20045;-72
2024/01/04 01:52:52;;;;;;;21.23;7.22;;;;;;;;;;1030595;28;20022;-72
2024/01/04 01:53:24;;;;;;;7.65;4.28;;;;;;;;;;1030744;28;20033;-73
2024/01/04 01:53:55;;;;;;;6.63;4.85;;;;;;;;;;1031665;28;20030;-72
2024/01/04 01:54:25;;;;;;;7.93;4.57;;;;;;;;;;1035003;28;20029;-72
2024/01/04 01:54:56;;;;;;;6.20;5.55;;;;;;;;;;1033482;28;20459;-72
2024/01/04 01:55:26;;;;;;;13.80;4.50;;;;;;;;;;1036523;28;20076;-72
2024/01/04 01:55:57;;;;;;;5.25;4.65;;;;;;;;;;1035355;28;20075;-72
2024/01/04 01:56:28;;;;;;;10.18;6.50;;;;;;;;;;1036728;28;20026;-72
2024/01/04 01:56:59;;;;;;;9.02;6.18;;;;;;;;;;1034793;28;20065;-72
2024/01/04 01:57:31;;;;;;;5.78;5.07;;;;;;;;;;1035175;28;20032;-72
2024/01/04 01:58:01;;;;;;;5.70;5.18;;;;;;;;;;1035261;28;20068;-72
2024/01/04 01:58:32;;;;;;;9.68;6.20;;;;;;;;;;1034900;28;20067;-72
2024/01/04 01:59:02;;;;;;;1.75;1.63;;;;;;;;;;1035289;28;20124;-72
2024/01/04 01:59:33;;;;;;;3.47;3.17;;;;;;;;;;1039060;28;20425;-72
2024/01/04 02:00:04;;;;;;;7.60;5.50;;;;;;;;;;1039214;28;20029;-72
2024/01/04 02:00:36;;;;;;;1.83;1.73;;;;;;;;;;1039037;28;20116;-72
2024/01/04 02:01:07;;;;;;;8.60;2.60;;;;;;;;;;1038283;28;20021;-72
2024/01/04 02:01:37;;;;;;;5.80;4.70;;;;;;;;;;1035384;28;20022;-72
2024/01/04 02:02:08;;;;;;;3.90;3.58;;;;;;;;;;1035823;28;20099;-72
2024/01/04 02:02:38;;;;;;;6.63;3.38;;;;;;;;;;1035669;28;20022;-72
2024/01/04 02:03:10;;;;;;;5.55;2.25;;;;;;;;;;1034888;28;20018;-72
2024/01/04 02:03:41;;;;;;;4.20;3.90;;;;;;;;;;1034400;28;20030;-72
2024/01/04 02:04:11;;;;;;;5.68;5.28;;;;;;;;;;1035561;28;20017;-72
2024/01/04 02:04:42;;;;;;;4.25;3.17;;;;;;;;;;1035626;28;20033;-72
2024/01/04 02:05:12;;;;;;;12.40;7.40;;;;;;;;;;1039299;28;20037;-72
2024/01/04 02:05:42;;;;;;;48.67;5.18;;;;;;;;;;1039010;28;20084;-72
2024/01/04 02:06:13;;;;;;;13.82;6.20;;;;;;;;;;1039410;28;20072;-72
2024/01/04 02:06:43;;;;;;;5.05;4.38;;;;;;;;;;1038994;28;20029;-72
2024/01/04 02:07:14;;;;;;;12.93;6.65;;;;;;;;;;1032138;28;21300;-72
2024/01/04 02:07:45;;;;;;;6.93;2.88;;;;;;;;;;1034629;28;20092;-72
2024/01/04 02:08:15;;;;;;;7.88;5.20;;;;;;;;;;1034623;28;20084;-72
2024/01/04 02:08:49;;;;;;;4.25;3.83;;;;;;;;;;1034645;28;20080;-72
2024/01/04 02:09:19;;;;;;;13.23;5.68;;;;;;;;;;1039022;28;20070;-72
2024/01/04 02:09:49;;;;;;;11.55;7.15;;;;;;;;;;1038824;28;20079;-72
2024/01/04 02:10:20;;;;;;;5.50;5.05;;;;;;;;;;1038758;28;20021;-72
2024/01/04 02:10:50;;;;;;;7.82;5.03;;;;;;;;;;1038907;28;20057;-72
2024/01/04 02:11:22;;;;;;;4.35;3.95;;;;;;;;;;1035063;28;20034;-72
2024/01/04 02:12:02;;;;;;;6.55;3.95;;;;;;;;;;1035184;28;20025;-72
2024/01/04 02:12:33;;;;;;;6.55;5.88;;;;;;;;;;1034917;28;20504;-72
2024/01/04 02:13:03;;;;;;;4.85;4.30;;;;;;;;;;1035069;28;20036;-72
2024/01/04 02:13:33;;;;;;;16.30;5.47;;;;;;;;;;1034867;28;20079;-72
2024/01/04 02:14:04;;;;;;;5.38;4.85;;;;;;;;;;1035003;28;20041;-72
2024/01/04 02:14:34;;;;;;;6.13;5.25;;;;;;;;;;1035745;28;20501;-72
2024/01/04 02:15:07;;;;;;;2.95;2.75;;;;;;;;;;1035319;28;20465;-72
2024/01/04 02:15:38;;;;;;;6.22;5.68;;;;;;;;;;1035182;28;20386;-72
2024/01/04 02:16:08;;;;;;;9.07;4.55;;;;;;;;;;1034376;28;20021;-72
2024/01/04 02:16:39;;;;;;;3.28;2.17;;;;;;;;;;1034667;28;20022;-72
2024/01/04 02:17:10;;;;;;;5.80;4.03;;;;;;;;;;1034528;28;20036;-72
2024/01/04 02:17:40;;;;;;;4.93;3.70;;;;;;;;;;1034682;28;20022;-72
2024/01/04 02:18:11;;;;;;;3.38;3.05;;;;;;;;;;1034622;28;20071;-72
2024/01/04 02:18:41;;;;;;;6.10;4.97;;;;;;;;;;1035256;28;20484;-72
2024/01/04 02:19:12;;;;;;;6.28;3.50;;;;;;;;;;1038392;28;20338;-72
2024/01/04 02:19:43;;;;;;;6.82;6.30;;;;;;;;;;1038620;28;20146;-72
2024/01/04 02:20:13;;;;;;;10.13;5.18;;;;;;;;;;1038799;28;20071;-72
2024/01/04 02:20:44;;;;;;;9.15;4.90;;;;;;;;;;1038547;28;20037;-72
2024/01/04 02:21:14;;;;;;;4.90;4.15;;;;;;;;;;1034625;28;20107;-72
2024/01/04 02:21:45;;;;;;;4.72;4.35;;;;;;;;;;1034510;28;20032;-72
2024/01/04 02:22:17;;;;;;;6.70;6.03;;;;;;;;;;1034127;28;20028;-72
2024/01/04 02:22:50;;;;;;;38.10;7.57;;;;;;;;;;1034137;28;20149;-72
2024/01/04 02:23:20;;;;;;;10.80;5.97;;;;;;;;;;1035225;28;20033;-72
2024/01/04 02:23:51;;;;;;;12.23;7.32;;;;;;;;;;1033527;28;20516;-72
2024/01/04 02:24:21;;;;;;;17.55;7.40;;;;;;;;;;1034298;28;20042;-72
2024/01/04 02:24:52;;;;;;;8.55;5.00;;;;;;;;;;1034849;28;20026;-72
2024/01/04 02:25:22;;;;;;;2.85;2.58;;;;;;;;;;1034690;28;20026;-72
2024/01/04 02:25:53;;;;;;;4.50;4.13;;;;;;;;;;1038868;28;20017;-72
2024/01/04 02:26:23;;;;;;;15.75;8.25;;;;;;;;;;1039065;28;20040;-72
2024/01/04 02:26:53;;;;;;;16.48;10.43;;;;;;;;;;1038954;28;20404;-72
2024/01/04 02:27:24;;;;;;;8.55;7.50;;;;;;;;;;1037779;28;20033;-72
2024/01/04 02:27:54;;;;;;;6.20;5.60;;;;;;;;;;1034710;28;20025;-72
2024/01/04 02:28:25;;;;;;;7.55;6.88;;;;;;;;;;1035448;28;20553;-72
2024/01/04 02:28:55;;;;;;;6.57;4.53;;;;;;;;;;1035070;28;20531;-72
2024/01/04 02:29:26;;;;;;;12.88;6.15;;;;;;;;;;1039390;28;20028;-72
2024/01/04 02:29:56;;;;;;;9.50;8.70;;;;;;;;;;1038998;28;20148;-72
2024/01/04 02:30:27;;;;;;;13.27;7.15;;;;;;;;;;1039127;28;20026;-72
2024/01/04 02:30:57;;;;;;;21.60;9.52;;;;;;;;;;1038880;28;20017;-72
2024/01/04 02:31:28;;;;;;;11.65;8.88;;;;;;;;;;1034964;28;20026;-72
2024/01/04 02:31:58;;;;;;;6.65;5.68;;;;;;;;;;1034547;28;20026;-72
2024/01/04 02:32:28;;;;;;;9.55;4.88;;;;;;;;;;1035136;28;20026;-72
2024/01/04 02:33:00;;;;;;;24.85;10.55;;;;;;;;;;1037562;28;20029;-71
2024/01/04 02:33:30;;;;;;;8.77;7.78;;;;;;;;;;1038492;28;20029;-72
2024/01/04 02:34:01;;;;;;;14.52;7.45;;;;;;;;;;1038238;28;20029;-72
2024/01/04 02:34:32;;;;;;;8.27;6.93;;;;;;;;;;1038652;28;20057;-72
2024/01/04 02:35:02;;;;;;;9.25;6.63;;;;;;;;;;1035058;28;20057;-72
2024/01/04 02:35:33;;;;;;;10.98;8.55;;;;;;;;;;1034749;28;20026;-72
2024/01/04 02:36:03;;;;;;;16.27;6.95;;;;;;;;;;1034730;28;20060;-72
2024/01/04 02:36:34;;;;;;;10.82;8.70;;;;;;;;;;1038617;28;20096;-72
2024/01/04 02:37:04;;;;;;;12.38;10.68;;;;;;;;;;1039069;28;20044;-72
2024/01/04 02:37:34;;;;;;;7.15;6.55;;;;;;;;;;1035107;28;20053;-72
2024/01/04 02:38:05;;;;;;;11.75;9.90;;;;;;;;;;1035485;28;20033;-72
2024/01/04 02:38:35;;;;;;;16.27;9.25;;;;;;;;;;1035085;28;20124;-72
2024/01/04 02:39:06;;;;;;;6.07;5.65;;;;;;;;;;1034644;28;20021;-72
2024/01/04 02:39:37;;;;;;;11.60;5.72;;;;;;;;;;1034868;28;20057;-72
2024/01/04 02:40:07;;;;;;;6.68;5.00;;;;;;;;;;1034782;28;20054;-72
2024/01/04 02:40:38;;;;;;;13.48;8.18;;;;;;;;;;1034400;28;20087;-72
2024/01/04 02:41:08;;;;;;;5.57;5.10;;;;;;;;;;1034734;28;20036;-72
2024/01/04 02:41:39;;;;;;;13.55;5.32;;;;;;;;;;1035668;28;20029;-72
2024/01/04 02:42:10;;;;;;;12.30;6.07;;;;;;;;;;1034742;28;20029;-72
2024/01/04 02:42:40;;;;;;;3.63;3.33;;;;;;;;;;1034189;28;20049;-72
2024/01/04 02:43:13;;;;;;;12.93;3.72;;;;;;;;;;1035226;28;20026;-72
2024/01/04 02:43:43;;;;;;;5.72;4.88;;;;;;;;;;1034263;28;20018;-72
2024/01/04 02:44:14;;;;;;;6.70;3.55;;;;;;;;;;1038524;28;20021;-72
2024/01/04 02:44:44;;;;;;;5.97;5.40;;;;;;;;;;1038988;28;20167;-72
2024/01/04 02:45:15;;;;;;;5.00;4.57;;;;;;;;;;1039884;28;20021;-72
2024/01/04 02:45:45;;;;;;;8.82;7.78;;;;;;;;;;1038280;28;20436;-72
2024/01/04 02:46:16;;;;;;;7.03;6.07;;;;;;;;;;1034692;28;20025;-72
2024/01/04 02:46:48;;;;;;;5.15;4.65;;;;;;;;;;1033853;28;20025;-72
2024/01/04 02:47:18;;;;;;;13.80;7.22;;;;;;;;;;1034591;28;20156;-72
2024/01/04 02:47:48;;;;;;;9.48;5.05;;;;;;;;;;1033528;28;20076;-72
2024/01/04 02:48:19;;;;;;;12.43;8.20;;;;;;;;;;1035083;28;20076;-72
2024/01/04 02:48:49;;;;;;;8.55;6.18;;;;;;;;;;1034522;28;20033;-72
2024/01/04 02:49:20;;;;;;;4.63;4.22;;;;;;;;;;1034644;28;20034;-72
2024/01/04 02:49:50;;;;;;;8.13;6.57;;;;;;;;;;1034443;28;20213;-72
2024/01/04 02:50:21;;;;;;;8.07;6.15;;;;;;;;;;1037855;28;20394;-72
2024/01/04 02:50:51;;;;;;;7.43;5.18;;;;;;;;;;1033748;28;20728;-72
2024/01/04 02:51:22;;;;;;;5.53;4.95;;;;;;;;;;1033971;28;20397;-72
2024/01/04 02:51:52;;;;;;;18.90;8.95;;;;;;;;;;1033347;28;20018;-72
2024/01/04 02:52:22;;;;;;;5.82;5.10;;;;;;;;;;1034076;28;20030;-72
2024/01/04 02:52:53;;;;;;;16.15;8.32;;;;;;;;;;1038425;28;20523;-72
2024/01/04 02:53:23;;;;;;;7.22;5.18;;;;;;;;;;1038041;28;20025;-72
2024/01/04 02:53:54;;;;;;;7.00;6.40;;;;;;;;;;1037614;28;20033;-72
2024/01/04 02:54:24;;;;;;;7.00;5.28;;;;;;;;;;1037560;28;20384;-72
2024/01/04 02:54:55;;;;;;;6.70;5.60;;;;;;;;;;1034390;28;20014;-72
2024/01/04 02:55:25;;;;;;;6.72;5.85;;;;;;;;;;1035381;28;20017;-72
2024/01/04 02:55:55;;;;;;;7.45;5.95;;;;;;;;;;1033920;28;20032;-72
2024/01/04 02:56:26;;;;;;;14.80;9.05;;;;;;;;;;1034636;28;20018;-72
2024/01/04 02:56:56;;;;;;;13.35;7.93;;;;;;;;;;1034529;28;20029;-72
2024/01/04 02:57:27;;;;;;;6.82;6.13;;;;;;;;;;1034766;28;20061;-72
2024/01/04 02:57:57;;;;;;;19.30;6.75;;;;;;;;;;1034743;28;20026;-72
2024/01/04 02:58:28;;;;;;;16.17;5.97;;;;;;;;;;1034494;28;20449;-72
2024/01/04 02:58:58;;;;;;;9.25;8.45;;;;;;;;;;1034553;28;20033;-72
2024/01/04 02:59:29;;;;;;;14.40;11.32;;;;;;;;;;1032312;28;20371;-72
2024/01/04 02:59:59;;;;;;;16.17;6.80;;;;;;;;;;1034487;28;20036;-72
2024/01/04 03:00:29;;;;;;;9.88;6.45;;;;;;;;;;1032904;28;20060;-72
2024/01/04 03:01:00;;;;;;;32.40;9.27;;;;;;;;;;1033644;28;20030;-72
2024/01/04 03:01:31;;;;;;;9.52;8.05;;;;;;;;;;1033520;28;20022;-72
2024/01/04 03:02:02;;;;;;;11.48;7.45;;;;;;;;;;1034156;28;20013;-72
2024/01/04 03:02:32;;;;;;;15.93;9.23;;;;;;;;;;1034993;28;20030;-72